Decoded Metar for FMEE (ST.-DENIS in REUNION ISLAND) (IATA:RUN) | Meteo·Mobile Aviation Weather
aviador You're here:

FMEE Decoded Metar

ST.-DENIS in REUNION ISLAND
Report Time2019-10-19 21:30:00
UTC Time2019-10-19 21:50:31
Flight Rules vfr VFR
Wind140° at 12 kt
W.Decomp.*RWY 14: 11.4 kt HW 3.7 kt RCW
RWY 12: 9.5 kt HW 7.4 kt RCW
Visibility9999 m
Phenomena:N/A
Clouds:Scattered 056 Hf
Expected CloudBase > 3,600 ft AGL from Temp-Dew spread
CeilingNone
Temp22°C (ISA +7)
Dew Point13°C (57% RH)
AAT18.6°C
QNH1019 hPa
Density Alt915 ft
Elevation82 ft
Report Wrong Elevation
Raw Report
FMEE 192130Z AUTO 14012KT 9999 SCT056 22/13 Q1019 NOSIG=

Extra information for FMEE:More info

Metar Taf Metar & Taf Last 4 Metars F.Rules Stats Wind Profile Meteogram Temp Stats Airport Information Weather charts Add Link Nearby VenuesMetar ALERT Operation Metar Decoded Social comments